Time;durP1;ratioP1;P1;durP2;ratioP2;P2;SDS_P1;SDS_P2;PMS_P1;PMS_P2;Temp;Humidity;BMP_temperature;BMP_pressure;BME280_temperature;BME280_humidity;BME280_pressure;Samples;Min_cycle;Max_cycle;Signal;HPM_P1;HPM_P2
2022/06/19 00:00:11;;;;;;;2.75;1.27;;;18.90;1.40;;;20.30;100.00;95190.14;646046;216;36489;-73
2022/06/19 00:02:52;;;;;;;3.67;1.30;;;19.30;1.40;;;20.72;100.00;95173.64;650519;216;42160;-74
2022/06/19 00:05:34;;;;;;;1.90;1.10;;;19.80;1.40;;;20.88;100.00;95168.93;645493;216;31634;-74
2022/06/19 00:08:16;;;;;;;3.53;1.48;;;19.90;1.40;;;20.81;100.00;95164.14;644920;216;42449;-74
2022/06/19 00:10:57;;;;;;;2.78;1.42;;;19.80;1.40;;;20.72;100.00;95162.77;653183;216;42181;-73
2022/06/19 00:13:39;;;;;;;1.80;1.40;;;19.60;1.40;;;20.72;100.00;95158.39;646675;212;31550;-74
2022/06/19 00:16:23;;;;;;;0.98;0.90;;;19.60;1.40;;;20.88;100.00;95156.98;651003;216;42976;-73
2022/06/19 00:19:08;;;;;;;3.47;1.30;;;19.80;1.40;;;20.73;100.00;95155.73;651304;212;31658;-74
2022/06/19 00:21:49;;;;;;;1.50;1.40;;;19.70;1.40;;;20.67;100.00;95152.38;648803;216;31610;-73
2022/06/19 00:24:31;;;;;;;3.90;1.70;;;19.60;1.40;;;20.54;100.00;95150.23;646326;216;42324;-74
2022/06/19 00:27:13;;;;;;;1.83;1.00;;;19.40;1.40;;;20.37;100.00;95149.42;650584;216;42154;-74
2022/06/19 00:29:54;;;;;;;1.80;1.33;;;19.10;1.40;;;20.23;100.00;95159.30;646351;216;42152;-73
2022/06/19 00:32:36;;;;;;;3.35;1.80;;;18.80;1.40;;;20.15;100.00;95171.27;648527;212;32176;-74
2022/06/19 00:35:51;;;;;;;4.70;1.30;;;18.80;1.40;;;19.38;100.00;95176.72;648625;216;31702;-73
2022/06/19 00:38:36;;;;;;;1.47;1.20;;;17.80;1.40;;;18.95;100.00;95167.61;645636;213;32731;-74
2022/06/19 00:41:18;;;;;;;3.50;1.15;;;17.60;1.40;;;18.96;100.00;95159.53;649565;212;31499;-73
2022/06/19 00:44:00;;;;;;;1.30;1.20;;;17.60;1.40;;;19.01;100.00;95161.52;644124;212;31547;-74
2022/06/19 00:46:51;;;;;;;3.10;1.37;;;17.80;1.40;;;19.13;100.00;95159.05;649306;216;31606;-73
2022/06/19 00:49:35;;;;;;;6.03;1.33;;;18.10;1.40;;;19.22;100.00;95147.89;646319;214;31494;-73
2022/06/19 00:52:18;;;;;;;3.10;1.40;;;18.10;1.40;;;18.97;100.00;95131.12;650671;216;31689;-74
2022/06/19 00:55:00;;;;;;;2.20;1.25;;;17.70;1.40;;;18.87;100.00;95135.34;646000;216;31504;-74
2022/06/19 01:00:16;;;;;;;3.22;1.40;;;17.50;1.40;;;18.68;100.00;95130.55;645710;216;31862;-73
2022/06/19 01:03:11;;;;;;;3.80;0.93;;;17.40;1.40;;;18.58;100.00;95127.78;647318;216;32105;-73
2022/06/19 01:05:53;;;;;;;3.30;1.30;;;17.20;1.40;;;18.47;100.00;95121.62;651702;216;31493;-74
2022/06/19 01:08:35;;;;;;;2.80;1.40;;;16.90;1.40;;;18.25;100.00;95112.16;650308;216;32249;-73
2022/06/19 01:11:16;;;;;;;2.10;1.00;;;16.60;1.40;;;18.03;100.00;95109.25;648627;216;42336;-73
2022/06/19 01:13:58;;;;;;;1.00;0.90;;;16.40;1.40;;;17.93;100.00;95099.81;645128;217;31497;-73
2022/06/19 01:16:40;;;;;;;2.37;1.80;;;16.30;1.40;;;17.83;100.00;95090.42;646067;212;31521;-73
2022/06/19 01:19:24;;;;;;;3.10;0.98;;;16.20;1.40;;;17.76;100.00;95084.47;649282;216;31544;-74
2022/06/19 01:22:06;;;;;;;2.53;1.10;;;16.20;1.40;;;17.78;100.00;95080.97;648880;216;31543;-73
2022/06/19 01:25:10;;;;;;;3.60;1.05;;;16.30;1.40;;;17.74;100.00;95084.14;648664;216;42762;-74
2022/06/19 01:30:41;;;;;;;1.77;1.50;;;16.40;1.40;;;17.13;100.00;95079.97;649308;216;31516;-73
2022/06/19 01:35:51;;;;;;;1.58;0.95;;;15.90;1.40;;;17.13;100.00;95070.39;647055;216;31595;-74
2022/06/19 01:38:33;;;;;;;2.00;1.10;;;15.80;1.40;;;17.01;100.00;95065.43;647197;216;31607;-73
2022/06/19 01:41:29;;;;;;;3.30;1.00;;;15.50;1.40;;;16.91;100.00;95056.84;645055;212;31521;-77
2022/06/19 01:44:12;;;;;;;4.28;1.15;;;15.40;1.40;;;16.80;100.00;95044.59;646230;216;31509;-73
2022/06/19 01:46:54;;;;;;;3.17;1.48;;;15.30;1.40;;;16.71;100.00;95042.80;648640;216;31499;-73
2022/06/19 01:49:36;;;;;;;1.85;0.90;;;15.30;1.40;;;16.71;100.00;95038.36;645195;216;31520;-73
2022/06/19 01:52:18;;;;;;;1.60;1.10;;;15.30;1.40;;;16.75;100.00;95032.11;617275;226;32568;-74
2022/06/19 01:55:04;;;;;;;3.97;1.30;;;15.30;1.40;;;16.71;100.00;95030.92;652956;216;31682;-75
2022/06/19 01:57:46;;;;;;;1.75;1.40;;;15.30;1.40;;;16.65;100.00;95030.19;647682;212;31588;-74
2022/06/19 02:00:28;;;;;;;3.30;1.08;;;15.20;1.40;;;16.63;100.00;95027.11;648438;216;31557;-74
2022/06/19 02:03:14;;;;;;;1.60;1.20;;;15.20;1.40;;;16.64;100.00;95022.63;645040;216;31488;-74
2022/06/19 02:05:55;;;;;;;3.05;1.58;;;15.30;1.40;;;16.58;100.00;95019.25;648291;216;31520;-74
2022/06/19 02:08:43;;;;;;;2.30;1.10;;;15.20;1.40;;;16.55;100.00;95016.02;649045;216;31700;-76
2022/06/19 02:11:33;;;;;;;2.10;0.80;;;15.00;1.40;;;16.38;100.00;95012.55;648791;216;31526;-74
2022/06/19 02:14:13;;;;;;;0.95;0.85;;;14.90;1.40;;;16.35;100.00;95009.27;645832;216;31532;-74
2022/06/19 02:16:54;;;;;;;2.33;1.02;;;14.80;1.40;;;16.32;100.00;95006.02;650983;216;31529;-74
2022/06/19 02:19:39;;;;;;;2.72;1.10;;;15.00;1.40;;;16.36;100.00;95002.83;644049;216;31552;-73
2022/06/19 02:22:20;;;;;;;3.20;1.48;;;15.10;1.40;;;16.34;100.00;95002.49;648687;212;31555;-74
2022/06/19 02:25:02;;;;;;;1.30;1.20;;;15.00;1.40;;;16.23;100.00;95000.05;645318;212;31493;-73
2022/06/19 02:27:44;;;;;;;1.48;1.12;;;14.80;1.40;;;16.16;100.00;95000.24;647657;216;31870;-72
2022/06/19 02:30:25;;;;;;;4.50;1.20;;;14.70;1.40;;;16.17;100.00;94998.44;645785;212;32084;-73
2022/06/19 02:35:54;;;;;;;1.12;0.90;;;14.80;1.40;;;15.94;100.00;95000.06;650490;214;31648;-73
2022/06/19 02:38:36;;;;;;;3.20;1.40;;;14.70;1.40;;;15.87;100.00;95000.73;646310;216;31969;-75
2022/06/19 02:41:17;;;;;;;7.60;1.50;;;14.70;1.40;;;16.00;100.00;94998.43;642870;217;32107;-73
2022/06/19 02:43:59;;;;;;;1.95;1.10;;;15.00;1.40;;;15.95;100.00;94992.59;646714;212;31785;-73
2022/06/19 02:46:41;;;;;;;1.50;1.10;;;14.70;1.40;;;15.94;100.00;94986.08;647347;212;31498;-74
2022/06/19 02:49:22;;;;;;;1.95;0.95;;;14.50;1.40;;;15.83;100.00;94975.50;616782;226;31884;-73
2022/06/19 02:52:06;;;;;;;2.55;1.00;;;14.40;1.40;;;15.75;100.00;94979.17;647149;212;32118;-73
2022/06/19 02:54:48;;;;;;;1.30;1.10;;;14.30;1.40;;;15.67;100.00;94976.10;649048;212;31605;-73
2022/06/19 02:57:32;;;;;;;2.25;1.20;;;14.30;1.40;;;15.65;100.00;94972.64;649978;216;31503;-74
2022/06/19 03:00:18;;;;;;;1.80;1.15;;;14.30;1.40;;;15.67;100.00;94972.13;651272;216;31478;-73
2022/06/19 03:03:01;;;;;;;1.23;1.02;;;14.30;1.40;;;15.67;100.00;94972.95;646284;216;31614;-74
2022/06/19 03:05:45;;;;;;;2.72;1.30;;;14.40;1.40;;;15.67;100.00;94977.53;645775;216;31690;-74
2022/06/19 03:08:27;;;;;;;1.92;1.10;;;14.30;1.40;;;15.67;100.00;94979.05;647111;212;31512;-73
2022/06/19 03:11:14;;;;;;;1.77;1.10;;;14.40;1.40;;;15.58;100.00;94974.12;651778;216;31482;-74
2022/06/19 03:13:55;;;;;;;0.90;0.80;;;14.30;1.40;;;15.48;100.00;94978.29;644622;216;31511;-74
2022/06/19 03:16:37;;;;;;;1.92;0.80;;;14.10;1.40;;;15.52;100.00;94983.47;649598;216;31515;-74
2022/06/19 03:19:22;;;;;;;0.90;0.80;;;14.10;1.40;;;15.53;100.00;94983.97;645790;216;31506;-73
2022/06/19 03:22:04;;;;;;;2.00;1.20;;;14.10;1.40;;;15.64;100.00;94984.86;649334;216;31490;-73
2022/06/19 03:24:48;;;;;;;0.80;0.73;;;14.10;1.40;;;15.53;100.00;94981.30;649766;216;42308;-73
2022/06/19 03:27:30;;;;;;;1.98;1.27;;;14.00;1.40;;;15.51;100.00;94988.27;648655;216;31568;-73
2022/06/19 03:30:13;;;;;;;7.00;0.90;;;14.10;1.40;;;15.63;100.00;94984.48;648473;216;31583;-73
2022/06/19 03:32:55;;;;;;;1.60;1.50;;;14.40;1.40;;;15.73;100.00;94990.23;647773;212;32099;-73
2022/06/19 03:35:51;;;;;;;1.87;1.37;;;14.50;1.40;;;15.78;100.00;94990.78;647920;216;31609;-73
2022/06/19 03:38:32;;;;;;;1.20;1.00;;;14.70;1.40;;;15.79;100.00;94993.70;645606;212;32066;-73
2022/06/19 03:41:14;;;;;;;1.70;1.02;;;14.50;1.40;;;15.80;100.00;95000.42;648171;216;31520;-73
2022/06/19 03:43:56;;;;;;;1.17;1.08;;;14.40;1.40;;;15.87;100.00;94997.45;646780;216;31588;-73
2022/06/19 03:46:38;;;;;;;1.77;1.40;;;14.60;1.40;;;16.02;100.00;94994.98;648591;216;31590;-73
2022/06/19 03:49:19;;;;;;;1.50;1.10;;;14.60;1.40;;;16.11;100.00;94995.09;651566;216;31634;-73
2022/06/19 03:52:01;;;;;;;2.85;1.23;;;14.70;1.40;;;16.13;100.00;94987.97;643345;216;31729;-73
2022/06/19 03:54:43;;;;;;;1.23;1.12;;;14.70;1.40;;;16.20;100.00;94989.82;648789;216;31561;-73
2022/06/19 03:57:24;;;;;;;1.20;1.10;;;14.80;1.40;;;16.26;100.00;94991.31;646032;216;31492;-73
2022/06/19 04:00:09;;;;;;;3.85;1.20;;;14.90;1.40;;;16.31;100.00;94995.02;644438;216;31505;-74
2022/06/19 04:02:49;;;;;;;3.20;1.33;;;15.00;1.40;;;16.36;100.00;94993.34;649247;212;31653;-73
2022/06/19 04:05:31;;;;;;;1.60;1.00;;;15.00;1.40;;;16.44;100.00;94987.80;646809;216;31663;-73
2022/06/19 04:08:12;;;;;;;3.53;1.30;;;15.00;1.40;;;16.44;100.00;94988.70;621106;226;32112;-73
2022/06/19 04:10:54;;;;;;;1.50;1.30;;;15.00;1.40;;;16.51;100.00;94990.61;647829;216;31611;-73
2022/06/19 04:13:36;;;;;;;1.00;0.90;;;15.00;1.40;;;16.57;100.00;94992.61;646766;216;31693;-73
2022/06/19 04:16:19;;;;;;;2.62;1.20;;;15.10;1.40;;;16.61;100.00;95000.75;646430;212;31483;-73
2022/06/19 04:18:59;;;;;;;1.73;1.62;;;15.20;1.40;;;16.73;100.00;95001.52;645855;216;31523;-74
2022/06/19 04:21:42;;;;;;;1.33;1.20;;;15.40;1.40;;;16.89;100.00;94998.06;648323;216;31611;-74
2022/06/19 04:24:23;;;;;;;3.60;1.70;;;15.30;1.40;;;16.79;100.00;95002.83;644517;216;31486;-74
2022/06/19 04:27:09;;;;;;;1.60;0.88;;;15.20;1.40;;;16.72;100.00;95005.17;647510;216;31575;-73
2022/06/19 04:29:50;;;;;;;2.22;0.80;;;15.10;1.40;;;16.73;100.00;94998.06;652575;216;31686;-73
2022/06/19 04:32:31;;;;;;;1.00;0.75;;;15.20;1.40;;;16.77;100.00;94988.20;644559;216;31516;-73
2022/06/19 04:35:52;;;;;;;2.00;1.20;;;15.20;1.40;;;16.87;100.00;94988.33;649271;216;31609;-73
2022/06/19 04:38:34;;;;;;;1.55;1.08;;;15.30;1.40;;;16.99;100.00;94994.97;647396;212;31508;-73
2022/06/19 04:41:16;;;;;;;4.12;2.05;;;15.50;1.40;;;17.19;100.00;94999.50;646557;216;31563;-73
2022/06/19 04:43:58;;;;;;;1.40;1.07;;;15.80;1.40;;;17.35;100.00;95007.98;647733;212;31738;-74
2022/06/19 04:46:39;;;;;;;3.83;1.10;;;15.90;1.40;;;17.39;100.00;95000.52;645129;216;31604;-73
2022/06/19 04:49:21;;;;;;;1.37;1.27;;;16.00;1.40;;;17.61;100.00;95005.31;644992;216;31566;-74
2022/06/19 04:52:03;;;;;;;1.90;1.60;;;16.20;1.40;;;17.80;100.00;95004.08;645504;216;31691;-74
2022/06/19 04:54:45;;;;;;;3.40;1.45;;;16.30;1.40;;;17.94;100.00;95005.41;645679;216;31687;-74
2022/06/19 04:57:26;;;;;;;1.95;1.30;;;16.60;1.40;;;18.22;100.00;94998.89;648488;216;31528;-73
2022/06/19 05:00:10;;;;;;;2.65;1.50;;;17.20;1.40;;;18.48;100.00;94990.41;645086;216;31594;-73
2022/06/19 05:02:51;;;;;;;1.75;1.30;;;17.30;1.40;;;18.68;100.00;94993.66;648221;216;31965;-73
2022/06/19 05:05:33;;;;;;;1.30;0.80;;;17.50;1.40;;;18.88;100.00;94999.97;649413;216;31630;-73
2022/06/19 05:08:15;;;;;;;4.25;1.60;;;17.70;1.40;;;19.13;100.00;94995.09;645849;216;31638;-72
2022/06/19 05:10:56;;;;;;;2.72;1.30;;;18.00;1.40;;;19.48;100.00;94992.67;650709;216;31532;-73
2022/06/19 05:13:38;;;;;;;5.28;1.80;;;18.50;1.40;;;19.72;100.00;94989.41;651981;212;31560;-73
2022/06/19 05:16:20;;;;;;;2.80;1.48;;;18.70;1.40;;;19.93;100.00;94988.00;649473;216;31703;-73
2022/06/19 05:19:03;;;;;;;2.42;1.30;;;19.00;1.40;;;20.20;100.00;94984.30;646098;216;31684;-73
2022/06/19 05:21:44;;;;;;;5.00;2.00;;;19.30;1.40;;;20.39;100.00;94984.78;645761;216;31516;-73
2022/06/19 05:24:26;;;;;;;5.25;1.75;;;19.40;1.40;;;20.51;100.00;94983.31;618954;226;31872;-73
2022/06/19 05:27:10;;;;;;;5.40;1.65;;;19.50;1.40;;;20.60;100.00;94983.75;643773;216;31685;-73
2022/06/19 05:29:52;;;;;;;3.62;1.52;;;19.40;1.40;;;20.67;100.00;94984.45;624800;226;31833;-73
2022/06/19 05:32:34;;;;;;;2.30;1.58;;;19.50;1.40;;;20.78;100.00;94983.09;645518;216;42150;-73
2022/06/19 05:35:51;;;;;;;7.62;1.55;;;19.60;1.40;;;20.95;100.00;94978.94;649965;216;31585;-73
2022/06/19 05:41:07;;;;;;;3.10;1.10;;;19.90;1.40;;;21.26;100.00;94988.05;650557;212;42198;-74
2022/06/19 05:43:49;;;;;;;2.78;2.22;;;19.90;1.40;;;21.35;100.00;94983.22;648471;216;42204;-74
2022/06/19 05:46:31;;;;;;;4.30;1.77;;;20.10;1.40;;;21.51;100.00;94981.56;647336;216;42159;-72
2022/06/19 05:49:12;;;;;;;3.28;1.60;;;20.20;1.40;;;21.61;100.00;94981.94;648738;216;31643;-73
2022/06/19 05:51:54;;;;;;;3.42;1.87;;;20.40;1.40;;;21.75;100.00;94984.98;647065;216;31543;-74
2022/06/19 05:54:36;;;;;;;3.70;1.70;;;20.50;1.40;;;21.86;100.00;94982.69;646478;216;31742;-73
2022/06/19 05:57:19;;;;;;;2.90;1.90;;;20.70;1.40;;;21.66;100.00;94982.09;646078;216;31727;-77
2022/06/19 06:00:09;;;;;;;4.32;1.40;;;20.30;1.40;;;20.99;100.00;94982.34;644224;216;31772;-73
2022/06/19 06:02:53;;;;;;;3.25;1.70;;;19.10;1.40;;;20.61;100.00;94988.69;647343;212;31577;-74
2022/06/19 06:05:35;;;;;;;2.42;1.50;;;18.60;1.40;;;20.47;100.00;94988.69;645867;216;31663;-75
2022/06/19 06:08:16;;;;;;;5.32;1.95;;;18.00;1.40;;;20.29;100.00;94982.81;649969;216;31680;-75
2022/06/19 06:10:58;;;;;;;3.78;1.95;;;18.00;1.40;;;20.32;100.00;94983.51;647224;215;31508;-74
2022/06/19 06:13:40;;;;;;;1.60;1.35;;;18.00;1.40;;;20.29;100.00;94988.80;649852;212;42148;-74
2022/06/19 06:16:21;;;;;;;2.90;1.60;;;17.80;1.40;;;20.33;100.00;94989.90;646314;216;42173;-74
2022/06/19 06:19:03;;;;;;;4.37;1.30;;;18.10;1.40;;;20.56;100.00;94990.45;646634;216;31564;-73
2022/06/19 06:21:45;;;;;;;3.00;1.60;;;19.10;1.40;;;20.78;100.00;94987.89;649512;212;31608;-73
2022/06/19 06:24:26;;;;;;;2.55;1.20;;;19.90;1.40;;;20.92;100.00;94990.84;646609;216;42229;-73
2022/06/19 06:27:08;;;;;;;4.20;1.12;;;20.60;1.40;;;21.14;100.00;94995.42;646792;216;42167;-74
2022/06/19 06:29:50;;;;;;;1.77;1.15;;;21.00;1.40;;;21.70;100.00;94992.56;649946;216;42146;-72
2022/06/19 06:32:34;;;;;;;4.70;1.98;;;21.50;1.40;;;22.24;100.00;94998.03;648061;216;31776;-73
2022/06/19 06:35:51;;;;;;;1.83;1.30;;;22.10;1.40;;;22.72;100.00;95008.15;649002;216;31729;-73
2022/06/19 06:38:32;;;;;;;3.40;1.40;;;22.40;1.40;;;23.24;100.00;95006.55;646499;212;31869;-73
2022/06/19 06:41:14;;;;;;;2.40;1.60;;;22.30;1.40;;;23.68;100.00;95005.61;646655;212;31641;-73
2022/06/19 06:43:56;;;;;;;2.17;1.30;;;22.50;1.40;;;24.14;100.00;95001.79;649998;215;32224;-74
2022/06/19 06:46:37;;;;;;;1.50;1.33;;;22.70;1.40;;;24.59;95.37;95001.77;645896;212;31746;-74
2022/06/19 06:49:19;;;;;;;8.37;1.90;;;22.90;1.40;;;24.85;92.62;94998.19;649162;216;31626;-74
2022/06/19 06:52:01;;;;;;;3.10;1.40;;;23.00;1.40;;;25.10;92.18;94995.23;647415;216;31951;-73
2022/06/19 06:54:43;;;;;;;2.72;2.10;;;22.90;1.40;;;25.30;90.50;94994.40;648356;216;31512;-73
2022/06/19 06:59:59;;;;;;;4.10;1.90;;;23.10;1.40;;;25.64;91.91;94990.23;648792;216;31647;-73
2022/06/19 07:02:40;;;;;;;5.15;2.20;;;23.40;1.40;;;25.83;93.78;94990.98;645481;216;31696;-74
2022/06/19 07:05:25;;;;;;;5.00;1.98;;;23.60;1.40;;;26.04;93.86;94992.87;650727;216;42163;-73
2022/06/19 07:10:41;;;;;;;4.72;2.00;;;23.90;1.40;;;26.54;89.53;94990.69;648749;216;31537;-73
2022/06/19 07:15:57;;;;;;;5.22;1.70;;;24.50;1.40;;;26.97;86.32;94989.34;620048;226;32078;-73
2022/06/19 07:18:38;;;;;;;5.22;2.20;;;24.70;1.40;;;27.11;88.78;94992.24;645081;216;31566;-74
2022/06/19 07:21:23;;;;;;;2.33;1.87;;;24.70;1.40;;;27.38;81.96;94990.95;648377;216;32108;-74
2022/06/19 07:24:05;;;;;;;4.20;2.17;;;25.00;1.40;;;27.58;80.74;94986.89;647382;216;31592;-73
2022/06/19 07:26:47;;;;;;;4.43;1.80;;;25.30;1.40;;;27.82;81.39;94989.75;618507;226;31913;-74
2022/06/19 07:29:28;;;;;;;4.97;2.33;;;25.50;1.40;;;28.01;73.68;94985.56;646228;216;31680;-73
2022/06/19 07:35:52;;;;;;;4.18;1.98;;;25.50;1.40;;;28.28;72.50;94989.48;641808;219;31679;-74
2022/06/19 07:38:33;;;;;;;3.40;2.00;;;25.40;1.40;;;28.37;68.84;94995.55;652616;216;31696;-74
2022/06/19 07:41:15;;;;;;;6.50;1.92;;;25.70;1.40;;;28.47;67.96;94995.81;645908;216;31550;-75
2022/06/19 07:43:57;;;;;;;7.00;2.10;;;25.80;1.40;;;28.67;70.07;94989.45;623333;222;32112;-73
2022/06/19 07:50:09;;;;;;;3.25;2.05;;;25.90;1.40;;;28.83;67.12;94986.27;645990;212;31514;-74
2022/06/19 07:52:08;;;;;;;9.02;2.20;;;26.10;1.40;;;29.03;63.56;94983.22;619139;226;32094;-74
2022/06/19 07:54:56;;;;;;;4.50;2.00;;;26.30;1.40;;;29.12;61.78;94979.23;648965;212;31661;-76
2022/06/19 07:57:43;;;;;;;3.20;1.65;;;26.50;1.40;;;29.25;61.85;94984.20;648895;216;42196;-74
2022/06/19 08:00:25;;;;;;;8.27;2.55;;;26.70;1.40;;;29.44;63.02;94985.91;646612;216;31543;-74
2022/06/19 08:03:06;;;;;;;4.85;2.28;;;27.00;1.40;;;29.46;59.99;94991.03;648309;216;31625;-74
2022/06/19 08:05:48;;;;;;;5.50;2.20;;;27.20;1.40;;;29.71;59.60;94991.09;622040;225;42554;-74
2022/06/19 08:08:33;;;;;;;5.95;2.50;;;28.40;1.40;;;29.78;62.90;94992.52;651617;216;31551;-74
2022/06/19 08:11:14;;;;;;;5.82;2.30;;;28.70;1.40;;;30.01;62.41;94990.33;646574;216;31767;-74
2022/06/19 08:13:56;;;;;;;3.92;2.12;;;28.90;1.40;;;30.08;62.43;94989.96;646724;216;31721;-74
2022/06/19 08:16:38;;;;;;;7.72;2.50;;;29.00;1.40;;;29.78;60.44;94992.58;648118;216;31641;-73
2022/06/19 08:19:19;;;;;;;4.25;2.10;;;28.60;1.40;;;29.80;63.31;95001.73;649813;216;31593;-74
2022/06/19 08:22:01;;;;;;;4.03;2.17;;;28.70;1.40;;;29.99;62.48;94996.38;648163;212;31705;-72
2022/06/19 08:24:43;;;;;;;3.20;2.20;;;28.80;1.40;;;29.78;61.21;94999.64;648686;216;31557;-73
2022/06/19 08:27:25;;;;;;;6.82;2.22;;;28.60;1.40;;;29.97;63.30;95001.95;647068;216;33119;-74
2022/06/19 08:30:07;;;;;;;6.72;2.90;;;28.80;1.40;;;30.04;62.44;94997.59;647250;216;31577;-73
2022/06/19 08:32:48;;;;;;;4.85;2.50;;;28.80;1.40;;;30.12;62.12;94993.64;648195;216;31559;-74
2022/06/19 08:35:51;;;;;;;2.60;2.03;;;29.00;1.40;;;30.20;61.91;94990.16;645749;216;31679;-74
2022/06/19 08:38:34;;;;;;;6.20;2.55;;;29.10;1.40;;;30.41;64.46;94986.06;646385;216;42222;-74
2022/06/19 08:41:19;;;;;;;6.30;2.22;;;29.30;1.40;;;30.47;64.55;94987.66;647577;216;31522;-74
2022/06/19 08:44:13;;;;;;;5.32;2.60;;;29.30;1.40;;;30.50;61.87;94987.50;645339;216;31574;-74
2022/06/19 08:50:04;;;;;;;4.60;2.80;;;29.40;1.40;;;30.78;60.86;94989.03;650647;212;31643;-74
2022/06/19 08:52:53;;;;;;;5.15;2.22;;;29.40;1.40;;;30.63;61.52;94984.59;639105;216;32191;-74
2022/06/19 08:56:01;;;;;;;7.00;2.95;;;29.50;1.40;;;30.61;62.74;94985.13;649910;216;31576;-73
2022/06/19 08:59:14;;;;;;;8.10;3.20;;;29.60;1.40;;;30.97;61.59;94977.73;648006;216;31509;-74
2022/06/19 09:01:59;;;;;;;4.90;2.60;;;29.70;1.40;;;31.05;60.61;94976.22;650161;212;31534;-73
2022/06/19 09:07:25;;;;;;;4.53;2.72;;;30.00;1.40;;;31.25;60.75;94976.46;647475;216;31675;-74
2022/06/19 09:10:14;;;;;;;6.75;3.08;;;30.10;1.40;;;31.51;58.79;94978.64;647348;212;31595;-74
2022/06/19 09:13:16;;;;;;;3.55;2.67;;;30.40;1.40;;;31.88;59.15;94983.61;647932;216;31593;-74
2022/06/19 09:16:03;;;;;;;5.80;2.75;;;30.60;1.40;;;31.93;58.14;94980.83;649093;216;31738;-74
2022/06/19 09:18:48;;;;;;;5.82;3.20;;;30.50;1.40;;;31.83;58.01;94982.78;618081;226;32414;-74
2022/06/19 09:21:39;;;;;;;12.23;3.42;;;30.60;1.40;;;32.03;58.73;94978.82;647747;216;31560;-74
2022/06/19 09:24:49;;;;;;;3.90;3.10;;;30.90;1.40;;;32.40;56.40;94977.59;646226;216;31524;-73
2022/06/19 09:27:30;;;;;;;6.68;2.92;;;31.20;1.40;;;32.81;55.01;94978.50;645711;216;31621;-74
2022/06/19 09:30:12;;;;;;;4.60;2.50;;;32.00;1.40;;;33.23;53.24;94968.31;646099;216;42389;-74
2022/06/19 09:32:56;;;;;;;8.88;3.60;;;33.40;1.40;;;33.25;51.58;94971.10;647146;216;42167;-74
2022/06/19 09:35:53;;;;;;;14.25;3.30;;;33.40;1.40;;;34.35;53.06;94969.11;646891;216;31592;-74
2022/06/19 09:38:39;;;;;;;4.93;3.12;;;34.30;1.40;;;35.50;50.83;94967.17;645720;216;32177;-74
2022/06/19 09:41:22;;;;;;;11.48;3.47;;;35.20;1.40;;;36.37;48.84;94963.36;645921;216;31864;-74
2022/06/19 09:44:09;;;;;;;6.87;3.70;;;35.80;1.40;;;37.05;46.55;94963.35;617836;226;32691;-73
2022/06/19 09:46:52;;;;;;;5.82;3.42;;;36.50;1.40;;;36.77;44.33;94958.62;648494;216;31950;-73
2022/06/19 09:49:50;;;;;;;9.25;3.40;;;35.90;1.40;;;38.18;44.70;94947.83;647840;216;31741;-73
2022/06/19 09:52:32;;;;;;;8.23;3.97;;;36.20;1.40;;;37.49;44.06;94951.02;640532;216;31780;-73
2022/06/19 09:58:14;;;;;;;5.62;3.70;;;37.10;1.40;;;38.15;44.80;94936.19;646167;216;42031;-73
2022/06/19 10:00:55;;;;;;;5.20;3.53;;;35.70;1.40;;;39.06;43.09;94929.89;645506;212;32128;-73
2022/06/19 10:03:35;;;;;;;6.70;3.55;;;37.10;1.40;;;38.42;41.68;94928.39;648436;212;31723;-72
2022/06/19 10:06:40;;;;;;;6.07;3.67;;;35.60;1.40;;;38.60;43.11;94925.13;648068;216;31703;-75
2022/06/19 10:09:40;;;;;;;5.55;3.83;;;37.00;1.40;;;37.32;42.37;94930.02;645773;216;31639;-73
2022/06/19 10:12:30;;;;;;;4.82;3.55;;;35.00;1.40;;;38.06;41.71;94921.72;644669;212;31579;-73
2022/06/19 10:15:13;;;;;;;6.55;3.70;;;35.60;1.40;;;37.36;43.94;94924.25;647018;216;31614;-73
2022/06/19 10:21:11;;;;;;;8.27;3.90;;;34.40;1.40;;;37.95;41.31;94919.78;647188;212;31594;-73
2022/06/19 10:23:57;;;;;;;7.22;3.30;;;35.50;1.40;;;38.54;40.91;94911.86;646734;216;31559;-73
2022/06/19 10:26:52;;;;;;;4.90;3.40;;;35.70;1.40;;;39.71;39.06;94913.00;647525;216;31636;-73
2022/06/19 10:29:43;;;;;;;5.70;3.80;;;36.30;1.40;;;40.18;39.65;94906.66;647261;212;42304;-73
2022/06/19 10:36:02;;;;;;;5.03;3.65;;;37.30;1.40;;;39.19;36.56;94916.41;647632;212;31679;-73
2022/06/19 10:39:20;;;;;;;5.50;3.90;;;36.60;1.40;;;39.21;38.63;94914.72;646493;216;31539;-73
2022/06/19 10:42:22;;;;;;;10.00;4.40;;;36.00;1.40;;;37.93;40.21;94916.34;647279;216;42888;-73
2022/06/19 10:45:28;;;;;;;5.03;3.60;;;35.40;1.40;;;39.49;38.37;94912.28;650760;216;31648;-73
2022/06/19 10:48:29;;;;;;;8.03;4.50;;;36.70;1.40;;;39.95;38.52;94908.72;643804;212;31613;-73
2022/06/19 10:51:15;;;;;;;9.57;3.57;;;37.20;1.40;;;39.75;37.65;94912.08;637146;217;31670;-73
2022/06/19 10:54:22;;;;;;;6.30;3.80;;;36.40;1.40;;;39.51;38.09;94907.65;645503;216;32239;-72
2022/06/19 10:57:16;;;;;;;5.50;3.90;;;37.00;1.40;;;40.07;36.54;94903.63;650358;216;31630;-73
2022/06/19 10:59:57;;;;;;;7.43;4.07;;;36.60;1.40;;;39.52;37.18;94899.25;650132;216;31604;-73
2022/06/19 11:05:42;;;;;;;7.10;4.12;;;36.40;1.40;;;39.33;36.94;94890.27;646253;212;31614;-73
2022/06/19 11:08:24;;;;;;;8.13;4.87;;;35.80;1.40;;;40.08;37.17;94890.56;650422;216;31532;-74
2022/06/19 11:13:16;;;;;;;5.20;3.60;;;36.60;1.40;;;41.15;35.61;94893.80;649154;216;31537;-74
2022/06/19 11:16:01;;;;;;;6.60;4.30;;;36.60;1.40;;;40.80;35.90;94892.10;647906;215;31569;-73
2022/06/19 11:18:45;;;;;;;5.80;4.30;;;36.90;1.40;;;41.30;35.05;94892.64;646799;216;31561;-73
2022/06/19 11:21:28;;;;;;;7.30;4.03;;;37.00;1.40;;;41.42;34.53;94887.28;647407;212;31699;-73
2022/06/19 11:24:10;;;;;;;7.20;4.10;;;37.40;1.40;;;39.55;35.24;94892.64;649133;216;32174;-73
2022/06/19 11:29:28;;;;;;;4.60;4.10;;;37.50;1.40;;;41.44;33.96;94883.55;648806;216;31559;-75
2022/06/19 11:32:13;;;;;;;6.03;3.77;;;36.70;1.40;;;40.49;34.99;94883.06;648486;216;32149;-74
2022/06/19 11:35:53;;;;;;;7.55;3.90;;;37.10;1.40;;;42.97;32.56;94867.05;622348;225;32489;-74
2022/06/19 11:38:39;;;;;;;8.25;4.55;;;37.60;1.40;;;42.79;32.78;94869.66;653157;216;31607;-74
2022/06/19 11:41:31;;;;;;;5.97;4.30;;;37.60;1.40;;;42.20;33.10;94876.70;647357;216;32139;-73
2022/06/19 11:46:53;;;;;;;5.30;4.80;;;37.50;1.40;;;43.28;32.65;94870.47;645426;216;31964;-73
2022/06/19 11:49:37;;;;;;;4.80;4.40;;;38.30;1.40;;;43.59;32.65;94871.23;646633;216;42262;-74
2022/06/19 11:52:18;;;;;;;6.30;4.82;;;38.30;1.40;;;41.70;33.96;94870.95;649731;212;31594;-74
2022/06/19 11:54:59;;;;;;;4.20;3.80;;;37.20;1.40;;;42.01;34.07;94865.88;646452;216;31592;-74
2022/06/19 11:57:41;;;;;;;5.62;3.90;;;36.70;1.40;;;40.65;33.17;94867.50;646676;216;31660;-74
2022/06/19 12:00:31;;;;;;;7.90;3.97;;;35.50;1.40;;;41.07;33.72;94865.90;648926;216;31569;-74
2022/06/19 12:03:31;;;;;;;4.85;4.07;;;36.30;1.40;;;40.24;34.10;94864.28;649946;216;31650;-74
2022/06/19 12:08:53;;;;;;;10.00;4.20;;;36.50;1.40;;;40.37;35.29;94860.14;648895;216;31560;-74
2022/06/19 12:11:37;;;;;;;9.00;4.50;;;35.60;1.40;;;41.39;33.01;94851.59;649590;216;31564;-73
2022/06/19 12:14:27;;;;;;;5.87;4.47;;;36.40;1.40;;;41.26;32.33;94850.33;650972;216;31548;-74
2022/06/19 12:17:16;;;;;;;7.47;4.60;;;36.10;1.40;;;43.94;31.60;94840.94;646055;216;31632;-73
2022/06/19 12:20:01;;;;;;;5.40;3.65;;;37.50;1.40;;;42.23;32.93;94840.70;646453;216;31580;-74
2022/06/19 12:23:08;;;;;;;5.37;4.07;;;36.70;1.40;;;41.92;32.58;94837.41;649421;216;31538;-74
2022/06/19 12:25:51;;;;;;;6.30;4.80;;;36.00;1.40;;;40.05;33.39;94840.73;647754;216;31576;-75
2022/06/19 12:28:55;;;;;;;6.53;4.13;;;35.30;1.40;;;39.85;34.04;94840.28;647540;216;31776;-74
2022/06/19 12:31:37;;;;;;;6.63;4.60;;;35.50;1.40;;;41.37;32.96;94832.64;647727;216;31563;-74
2022/06/19 12:35:54;;;;;;;7.20;4.70;;;36.70;1.40;;;40.85;32.14;94830.55;645333;216;31669;-74